sensor_id;sensor_type;location;lat;lon;timestamp;P1;durP1;ratioP1;P2;durP2;ratioP2
75356;SDS011;63946;51.986;5.930;2023-08-30T04:46:50;8.07;;;5.82;;
75356;SDS011;63946;51.986;5.930;2023-08-30T04:49:24;8.23;;;5.70;;
75356;SDS011;63946;51.986;5.930;2023-08-30T04:52:09;10.02;;;6.32;;
75356;SDS011;63946;51.986;5.930;2023-08-30T04:55:06;8.13;;;5.60;;
75356;SDS011;63946;51.986;5.930;2023-08-30T04:57:41;10.25;;;6.45;;
75356;SDS011;63946;51.986;5.930;2023-08-30T05:00:19;8.82;;;6.47;;
75356;SDS011;63946;51.986;5.930;2023-08-30T05:02:54;8.55;;;6.22;;
75356;SDS011;63946;51.986;5.930;2023-08-30T05:05:23;8.25;;;5.82;;
75356;SDS011;63946;51.986;5.930;2023-08-30T05:08:05;8.93;;;5.43;;
75356;SDS011;63946;51.986;5.930;2023-08-30T05:10:37;8.60;;;5.57;;
75356;SDS011;63946;51.986;5.930;2023-08-30T05:13:09;8.65;;;5.97;;
75356;SDS011;63946;51.986;5.930;2023-08-30T05:15:39;8.35;;;5.53;;
75356;SDS011;63946;51.986;5.930;2023-08-30T05:18:08;9.10;;;6.07;;
75356;SDS011;63946;51.986;5.930;2023-08-30T05:20:37;7.97;;;5.68;;
75356;SDS011;63946;51.986;5.930;2023-08-30T05:23:06;8.57;;;5.43;;
75356;SDS011;63946;51.986;5.930;2023-08-30T05:25:37;8.73;;;5.88;;
75356;SDS011;63946;51.986;5.930;2023-08-30T05:28:07;9.20;;;5.90;;
75356;SDS011;63946;51.986;5.930;2023-08-30T05:30:36;9.13;;;5.97;;
75356;SDS011;63946;51.986;5.930;2023-08-30T05:33:28;7.35;;;5.25;;
75356;SDS011;63946;51.986;5.930;2023-08-30T05:36:17;8.20;;;5.57;;
75356;SDS011;63946;51.986;5.930;2023-08-30T05:39:07;6.68;;;5.35;;
75356;SDS011;63946;51.986;5.930;2023-08-30T05:41:43;8.57;;;5.78;;
75356;SDS011;63946;51.986;5.930;2023-08-30T05:44:13;9.07;;;5.35;;
75356;SDS011;63946;51.986;5.930;2023-08-30T05:46:42;10.05;;;6.60;;
75356;SDS011;63946;51.986;5.930;2023-08-30T05:49:14;8.68;;;5.65;;
75356;SDS011;63946;51.986;5.930;2023-08-30T05:51:44;9.50;;;6.57;;
75356;SDS011;63946;51.986;5.930;2023-08-30T05:54:13;9.95;;;7.20;;
75356;SDS011;63946;51.986;5.930;2023-08-30T05:56:45;12.63;;;7.60;;
75356;SDS011;63946;51.986;5.930;2023-08-30T05:59:14;10.60;;;6.47;;
75356;SDS011;63946;51.986;5.930;2023-08-30T06:01:47;8.05;;;6.25;;
75356;SDS011;63946;51.986;5.930;2023-08-30T06:04:19;8.75;;;6.05;;
75356;SDS011;63946;51.986;5.930;2023-08-30T06:06:51;9.40;;;6.80;;
75356;SDS011;63946;51.986;5.930;2023-08-30T06:09:20;8.07;;;6.15;;
75356;SDS011;63946;51.986;5.930;2023-08-30T06:11:56;9.82;;;6.70;;
75356;SDS011;63946;51.986;5.930;2023-08-30T06:14:25;9.32;;;6.75;;
75356;SDS011;63946;51.986;5.930;2023-08-30T06:16:57;11.70;;;6.55;;
75356;SDS011;63946;51.986;5.930;2023-08-30T06:19:26;9.60;;;6.72;;
75356;SDS011;63946;51.986;5.930;2023-08-30T06:21:58;11.60;;;5.90;;
75356;SDS011;63946;51.986;5.930;2023-08-30T06:24:30;8.32;;;6.68;;
75356;SDS011;63946;51.986;5.930;2023-08-30T06:27:04;9.93;;;6.80;;
75356;SDS011;63946;51.986;5.930;2023-08-30T06:29:42;11.57;;;8.13;;
75356;SDS011;63946;51.986;5.930;2023-08-30T06:32:11;9.25;;;7.43;;
75356;SDS011;63946;51.986;5.930;2023-08-30T06:34:40;10.20;;;7.88;;
75356;SDS011;63946;51.986;5.930;2023-08-30T06:37:12;10.85;;;7.55;;
75356;SDS011;63946;51.986;5.930;2023-08-30T06:39:43;11.13;;;8.57;;
75356;SDS011;63946;51.986;5.930;2023-08-30T06:42:14;12.50;;;7.22;;
75356;SDS011;63946;51.986;5.930;2023-08-30T06:44:44;10.35;;;6.85;;
75356;SDS011;63946;51.986;5.930;2023-08-30T06:47:13;9.15;;;7.75;;
75356;SDS011;63946;51.986;5.930;2023-08-30T06:52:15;15.50;;;8.27;;
75356;SDS011;63946;51.986;5.930;2023-08-30T06:54:47;9.18;;;6.53;;
75356;SDS011;63946;51.986;5.930;2023-08-30T06:57:16;11.52;;;7.55;;
75356;SDS011;63946;51.986;5.930;2023-08-30T06:59:47;10.48;;;7.55;;
75356;SDS011;63946;51.986;5.930;2023-08-30T07:02:19;10.65;;;7.40;;
75356;SDS011;63946;51.986;5.930;2023-08-30T07:04:51;9.68;;;7.05;;
75356;SDS011;63946;51.986;5.930;2023-08-30T07:07:20;10.65;;;7.40;;
75356;SDS011;63946;51.986;5.930;2023-08-30T07:09:56;10.40;;;7.18;;
75356;SDS011;63946;51.986;5.930;2023-08-30T07:12:29;9.65;;;7.00;;
75356;SDS011;63946;51.986;5.930;2023-08-30T07:14:57;10.45;;;7.28;;
75356;SDS011;63946;51.986;5.930;2023-08-30T07:17:33;11.85;;;7.75;;
75356;SDS011;63946;51.986;5.930;2023-08-30T07:20:03;9.07;;;6.95;;
75356;SDS011;63946;51.986;5.930;2023-08-30T07:22:42;11.43;;;7.38;;
75356;SDS011;63946;51.986;5.930;2023-08-30T07:25:14;9.48;;;7.57;;
75356;SDS011;63946;51.986;5.930;2023-08-30T07:27:52;11.45;;;7.35;;
75356;SDS011;63946;51.986;5.930;2023-08-30T07:30:30;12.52;;;8.30;;
75356;SDS011;63946;51.986;5.930;2023-08-30T07:33:06;12.00;;;8.10;;
75356;SDS011;63946;51.986;5.930;2023-08-30T07:35:40;11.82;;;6.43;;
75356;SDS011;63946;51.986;5.930;2023-08-30T07:38:20;10.18;;;7.18;;
75356;SDS011;63946;51.986;5.930;2023-08-30T07:40:53;12.18;;;7.57;;
75356;SDS011;63946;51.986;5.930;2023-08-30T07:43:28;12.20;;;7.13;;
75356;SDS011;63946;51.986;5.930;2023-08-30T07:46:26;11.73;;;7.57;;
75356;SDS011;63946;51.986;5.930;2023-08-30T07:49:17;10.13;;;6.55;;
75356;SDS011;63946;51.986;5.930;2023-08-30T07:52:05;9.15;;;6.32;;
75356;SDS011;63946;51.986;5.930;2023-08-30T07:55:23;12.32;;;6.60;;
75356;SDS011;63946;51.986;5.930;2023-08-30T07:57:57;10.05;;;5.95;;
75356;SDS011;63946;51.986;5.930;2023-08-30T08:00:38;8.38;;;5.75;;
75356;SDS011;63946;51.986;5.930;2023-08-30T08:03:07;11.18;;;7.35;;
75356;SDS011;63946;51.986;5.930;2023-08-30T08:05:36;8.98;;;5.70;;
75356;SDS011;63946;51.986;5.930;2023-08-30T08:08:06;9.43;;;6.00;;
75356;SDS011;63946;51.986;5.930;2023-08-30T08:13:08;7.75;;;5.40;;
75356;SDS011;63946;51.986;5.930;2023-08-30T08:15:41;8.55;;;6.03;;
75356;SDS011;63946;51.986;5.930;2023-08-30T08:18:10;10.32;;;6.13;;
75356;SDS011;63946;51.986;5.930;2023-08-30T08:20:42;10.43;;;6.72;;
75356;SDS011;63946;51.986;5.930;2023-08-30T08:23:16;10.85;;;6.70;;
75356;SDS011;63946;51.986;5.930;2023-08-30T08:25:56;9.10;;;6.25;;
75356;SDS011;63946;51.986;5.930;2023-08-30T08:28:34;8.10;;;5.15;;
75356;SDS011;63946;51.986;5.930;2023-08-30T08:31:05;10.20;;;6.80;;
75356;SDS011;63946;51.986;5.930;2023-08-30T08:33:44;6.90;;;5.25;;
75356;SDS011;63946;51.986;5.930;2023-08-30T08:36:32;9.82;;;5.50;;
75356;SDS011;63946;51.986;5.930;2023-08-30T08:39:04;7.38;;;5.07;;
75356;SDS011;63946;51.986;5.930;2023-08-30T08:41:49;7.72;;;4.93;;
75356;SDS011;63946;51.986;5.930;2023-08-30T08:44:37;7.53;;;4.72;;
75356;SDS011;63946;51.986;5.930;2023-08-30T08:49:41;9.50;;;5.78;;
75356;SDS011;63946;51.986;5.930;2023-08-30T08:52:15;7.55;;;5.13;;
75356;SDS011;63946;51.986;5.930;2023-08-30T08:54:54;8.88;;;5.68;;
75356;SDS011;63946;51.986;5.930;2023-08-30T08:57:33;10.80;;;8.23;;
75356;SDS011;63946;51.986;5.930;2023-08-30T09:00:21;8.65;;;6.28;;
75356;SDS011;63946;51.986;5.930;2023-08-30T09:02:50;9.80;;;7.47;;
75356;SDS011;63946;51.986;5.930;2023-08-30T09:05:20;9.88;;;6.13;;
75356;SDS011;63946;51.986;5.930;2023-08-30T09:07:52;7.80;;;6.28;;
75356;SDS011;63946;51.986;5.930;2023-08-30T09:10:27;7.88;;;6.25;;
75356;SDS011;63946;51.986;5.930;2023-08-30T09:12:59;10.55;;;6.90;;
75356;SDS011;63946;51.986;5.930;2023-08-30T09:15:32;7.20;;;5.47;;
75356;SDS011;63946;51.986;5.930;2023-08-30T09:18:14;9.75;;;6.32;;
75356;SDS011;63946;51.986;5.930;2023-08-30T09:20:45;8.88;;;6.30;;
75356;SDS011;63946;51.986;5.930;2023-08-30T09:23:21;9.25;;;6.90;;
75356;SDS011;63946;51.986;5.930;2023-08-30T09:25:55;10.10;;;7.20;;
75356;SDS011;63946;51.986;5.930;2023-08-30T09:28:27;8.90;;;6.38;;
75356;SDS011;63946;51.986;5.930;2023-08-30T09:31:14;9.27;;;6.72;;
75356;SDS011;63946;51.986;5.930;2023-08-30T09:33:47;9.23;;;5.72;;
75356;SDS011;63946;51.986;5.930;2023-08-30T09:38:55;7.47;;;5.10;;
75356;SDS011;63946;51.986;5.930;2023-08-30T09:41:33;8.35;;;5.95;;
75356;SDS011;63946;51.986;5.930;2023-08-30T09:44:06;7.18;;;5.55;;
75356;SDS011;63946;51.986;5.930;2023-08-30T09:46:41;6.15;;;4.75;;
75356;SDS011;63946;51.986;5.930;2023-08-30T09:49:11;6.40;;;4.80;;
75356;SDS011;63946;51.986;5.930;2023-08-30T09:51:41;6.95;;;5.00;;
75356;SDS011;63946;51.986;5.930;2023-08-30T09:54:18;7.30;;;5.03;;
75356;SDS011;63946;51.986;5.930;2023-08-30T09:56:49;5.82;;;4.68;;
75356;SDS011;63946;51.986;5.930;2023-08-30T09:59:38;5.75;;;4.65;;
75356;SDS011;63946;51.986;5.930;2023-08-30T10:02:08;5.82;;;4.57;;
75356;SDS011;63946;51.986;5.930;2023-08-30T10:04:40;6.82;;;4.13;;
75356;SDS011;63946;51.986;5.930;2023-08-30T10:07:13;5.95;;;4.18;;
75356;SDS011;63946;51.986;5.930;2023-08-30T10:09:51;5.82;;;4.45;;
75356;SDS011;63946;51.986;5.930;2023-08-30T10:12:23;7.10;;;4.03;;
75356;SDS011;63946;51.986;5.930;2023-08-30T10:18:10;3.85;;;3.33;;
75356;SDS011;63946;51.986;5.930;2023-08-30T10:20:49;4.32;;;3.67;;
75356;SDS011;63946;51.986;5.930;2023-08-30T10:23:28;5.47;;;4.10;;
75356;SDS011;63946;51.986;5.930;2023-08-30T10:26:20;7.70;;;5.38;;
75356;SDS011;63946;51.986;5.930;2023-08-30T10:29:04;7.50;;;4.50;;
75356;SDS011;63946;51.986;5.930;2023-08-30T10:31:52;8.55;;;4.88;;
75356;SDS011;63946;51.986;5.930;2023-08-30T10:34:50;7.97;;;5.25;;
75356;SDS011;63946;51.986;5.930;2023-08-30T10:37:41;7.65;;;5.15;;
75356;SDS011;63946;51.986;5.930;2023-08-30T10:40:33;6.63;;;5.45;;
75356;SDS011;63946;51.986;5.930;2023-08-30T10:43:30;7.38;;;5.10;;
75356;SDS011;63946;51.986;5.930;2023-08-30T10:46:05;5.28;;;4.75;;
75356;SDS011;63946;51.986;5.930;2023-08-30T10:48:52;6.25;;;4.70;;
75356;SDS011;63946;51.986;5.930;2023-08-30T10:51:54;4.93;;;4.40;;
75356;SDS011;63946;51.986;5.930;2023-08-30T10:54:47;7.47;;;5.80;;
75356;SDS011;63946;51.986;5.930;2023-08-30T10:57:24;6.43;;;5.65;;
75356;SDS011;63946;51.986;5.930;2023-08-30T11:00:34;6.35;;;4.82;;
75356;SDS011;63946;51.986;5.930;2023-08-30T11:03:03;6.60;;;5.70;;
75356;SDS011;63946;51.986;5.930;2023-08-30T11:05:40;7.45;;;6.03;;
75356;SDS011;63946;51.986;5.930;2023-08-30T11:08:15;7.38;;;5.55;;
75356;SDS011;63946;51.986;5.930;2023-08-30T11:11:09;7.22;;;5.82;;
75356;SDS011;63946;51.986;5.930;2023-08-30T11:13:55;8.57;;;6.82;;
75356;SDS011;63946;51.986;5.930;2023-08-30T11:16:41;8.05;;;6.28;;
75356;SDS011;63946;51.986;5.930;2023-08-30T11:19:14;7.57;;;5.97;;
75356;SDS011;63946;51.986;5.930;2023-08-30T11:21:52;6.82;;;5.80;;
75356;SDS011;63946;51.986;5.930;2023-08-30T11:24:27;8.27;;;7.38;;
75356;SDS011;63946;51.986;5.930;2023-08-30T11:27:13;8.88;;;6.65;;
75356;SDS011;63946;51.986;5.930;2023-08-30T11:29:43;7.90;;;6.45;;
75356;SDS011;63946;51.986;5.930;2023-08-30T11:32:17;8.07;;;6.85;;
75356;SDS011;63946;51.986;5.930;2023-08-30T11:34:57;9.15;;;7.50;;
75356;SDS011;63946;51.986;5.930;2023-08-30T11:37:32;7.78;;;6.90;;
75356;SDS011;63946;51.986;5.930;2023-08-30T11:40:05;8.75;;;7.18;;
75356;SDS011;63946;51.986;5.930;2023-08-30T11:42:49;7.00;;;6.30;;
75356;SDS011;63946;51.986;5.930;2023-08-30T11:45:20;6.22;;;5.63;;
75356;SDS011;63946;51.986;5.930;2023-08-30T11:47:55;7.10;;;5.78;;
75356;SDS011;63946;51.986;5.930;2023-08-30T11:52:58;6.95;;;4.78;;
75356;SDS011;63946;51.986;5.930;2023-08-30T11:55:30;6.07;;;5.28;;
75356;SDS011;63946;51.986;5.930;2023-08-30T11:58:11;5.80;;;4.85;;
75356;SDS011;63946;51.986;5.930;2023-08-30T12:00:46;7.22;;;4.95;;
75356;SDS011;63946;51.986;5.930;2023-08-30T12:03:23;6.65;;;4.80;;
75356;SDS011;63946;51.986;5.930;2023-08-30T12:05:58;6.93;;;3.97;;
75356;SDS011;63946;51.986;5.930;2023-08-30T12:08:29;5.22;;;4.55;;
75356;SDS011;63946;51.986;5.930;2023-08-30T12:11:03;5.28;;;4.22;;
75356;SDS011;63946;51.986;5.930;2023-08-30T12:13:35;6.40;;;4.32;;
75356;SDS011;63946;51.986;5.930;2023-08-30T12:16:05;4.80;;;3.30;;
75356;SDS011;63946;51.986;5.930;2023-08-30T12:18:39;5.20;;;3.10;;
75356;SDS011;63946;51.986;5.930;2023-08-30T12:21:15;5.32;;;3.13;;
75356;SDS011;63946;51.986;5.930;2023-08-30T12:23:59;4.25;;;2.47;;
75356;SDS011;63946;51.986;5.930;2023-08-30T12:26:37;3.97;;;2.60;;
75356;SDS011;63946;51.986;5.930;2023-08-30T12:29:06;5.63;;;3.40;;
75356;SDS011;63946;51.986;5.930;2023-08-30T12:31:35;4.68;;;2.70;;
75356;SDS011;63946;51.986;5.930;2023-08-30T12:34:04;4.00;;;2.45;;
75356;SDS011;63946;51.986;5.930;2023-08-30T12:36:36;5.78;;;2.63;;
75356;SDS011;63946;51.986;5.930;2023-08-30T12:39:05;4.82;;;2.55;;
75356;SDS011;63946;51.986;5.930;2023-08-30T12:41:40;7.28;;;2.67;;
75356;SDS011;63946;51.986;5.930;2023-08-30T12:44:12;4.97;;;2.08;;
75356;SDS011;63946;51.986;5.930;2023-08-30T12:46:43;5.28;;;2.28;;
75356;SDS011;63946;51.986;5.930;2023-08-30T12:49:15;6.47;;;2.78;;
75356;SDS011;63946;51.986;5.930;2023-08-30T12:51:49;5.50;;;2.55;;
75356;SDS011;63946;51.986;5.930;2023-08-30T12:54:24;6.00;;;2.05;;
75356;SDS011;63946;51.986;5.930;2023-08-30T12:57:05;6.03;;;2.45;;
75356;SDS011;63946;51.986;5.930;2023-08-30T12:59:34;4.13;;;2.05;;
75356;SDS011;63946;51.986;5.930;2023-08-30T13:02:14;4.40;;;2.17;;
75356;SDS011;63946;51.986;5.930;2023-08-30T13:04:43;5.82;;;2.10;;
75356;SDS011;63946;51.986;5.930;2023-08-30T13:07:13;4.78;;;2.00;;
75356;SDS011;63946;51.986;5.930;2023-08-30T13:09:50;6.38;;;2.80;;
75356;SDS011;63946;51.986;5.930;2023-08-30T13:12:22;6.35;;;2.20;;
75356;SDS011;63946;51.986;5.930;2023-08-30T13:14:53;6.30;;;2.25;;
75356;SDS011;63946;51.986;5.930;2023-08-30T13:17:22;5.22;;;2.17;;
75356;SDS011;63946;51.986;5.930;2023-08-30T13:19:51;6.22;;;2.08;;
75356;SDS011;63946;51.986;5.930;2023-08-30T13:22:21;4.70;;;2.53;;
75356;SDS011;63946;51.986;5.930;2023-08-30T13:24:50;4.25;;;2.13;;
75356;SDS011;63946;51.986;5.930;2023-08-30T13:27:22;8.40;;;2.22;;
75356;SDS011;63946;51.986;5.930;2023-08-30T13:29:53;7.45;;;2.55;;
75356;SDS011;63946;51.986;5.930;2023-08-30T13:32:26;5.05;;;2.30;;
75356;SDS011;63946;51.986;5.930;2023-08-30T13:34:57;4.38;;;2.17;;
75356;SDS011;63946;51.986;5.930;2023-08-30T13:37:27;6.57;;;1.80;;
75356;SDS011;63946;51.986;5.930;2023-08-30T13:39:56;5.35;;;1.90;;
75356;SDS011;63946;51.986;5.930;2023-08-30T13:42:25;6.00;;;2.15;;
75356;SDS011;63946;51.986;5.930;2023-08-30T13:44:54;7.53;;;2.60;;
75356;SDS011;63946;51.986;5.930;2023-08-30T13:47:25;5.45;;;1.80;;
75356;SDS011;63946;51.986;5.930;2023-08-30T13:49:55;7.13;;;2.33;;
75356;SDS011;63946;51.986;5.930;2023-08-30T13:52:26;5.85;;;2.00;;
75356;SDS011;63946;51.986;5.930;2023-08-30T13:55:04;5.18;;;2.03;;
75356;SDS011;63946;51.986;5.930;2023-08-30T13:57:37;5.93;;;1.92;;
75356;SDS011;63946;51.986;5.930;2023-08-30T14:00:06;6.25;;;2.15;;
75356;SDS011;63946;51.986;5.930;2023-08-30T14:02:42;7.45;;;2.45;;
75356;SDS011;63946;51.986;5.930;2023-08-30T14:05:14;5.10;;;2.00;;
75356;SDS011;63946;51.986;5.930;2023-08-30T14:07:52;7.88;;;2.45;;
75356;SDS011;63946;51.986;5.930;2023-08-30T14:10:24;6.97;;;1.92;;
75356;SDS011;63946;51.986;5.930;2023-08-30T14:12:59;5.70;;;2.15;;
75356;SDS011;63946;51.986;5.930;2023-08-30T14:15:40;7.80;;;1.92;;
75356;SDS011;63946;51.986;5.930;2023-08-30T14:18:10;6.07;;;2.05;;
75356;SDS011;63946;51.986;5.930;2023-08-30T14:20:44;6.80;;;1.80;;
75356;SDS011;63946;51.986;5.930;2023-08-30T14:23:14;5.97;;;1.73;;
75356;SDS011;63946;51.986;5.930;2023-08-30T14:25:42;4.07;;;1.63;;
75356;SDS011;63946;51.986;5.930;2023-08-30T14:28:14;6.20;;;2.00;;
75356;SDS011;63946;51.986;5.930;2023-08-30T14:30:43;4.68;;;1.70;;
75356;SDS011;63946;51.986;5.930;2023-08-30T14:33:12;4.15;;;1.80;;
75356;SDS011;63946;51.986;5.930;2023-08-30T14:35:45;4.78;;;1.45;;
75356;SDS011;63946;51.986;5.930;2023-08-30T14:38:17;5.90;;;1.88;;
75356;SDS011;63946;51.986;5.930;2023-08-30T14:40:55;6.50;;;2.03;;
75356;SDS011;63946;51.986;5.930;2023-08-30T14:43:32;3.65;;;1.90;;
75356;SDS011;63946;51.986;5.930;2023-08-30T14:46:03;5.03;;;2.03;;
75356;SDS011;63946;51.986;5.930;2023-08-30T14:48:34;4.75;;;1.88;;
75356;SDS011;63946;51.986;5.930;2023-08-30T14:51:10;6.10;;;1.92;;
75356;SDS011;63946;51.986;5.930;2023-08-30T14:53:45;5.32;;;1.75;;
75356;SDS011;63946;51.986;5.930;2023-08-30T14:56:16;3.65;;;1.65;;
75356;SDS011;63946;51.986;5.930;2023-08-30T14:58:53;5.68;;;1.80;;
75356;SDS011;63946;51.986;5.930;2023-08-30T15:03:54;6.03;;;1.65;;
75356;SDS011;63946;51.986;5.930;2023-08-30T15:06:23;3.35;;;1.75;;
75356;SDS011;63946;51.986;5.930;2023-08-30T15:08:54;4.05;;;1.48;;
75356;SDS011;63946;51.986;5.930;2023-08-30T15:11:23;3.95;;;1.70;;
75356;SDS011;63946;51.986;5.930;2023-08-30T15:13:53;4.22;;;1.73;;
75356;SDS011;63946;51.986;5.930;2023-08-30T15:16:22;6.45;;;1.83;;
75356;SDS011;63946;51.986;5.930;2023-08-30T15:18:53;4.55;;;1.40;;
75356;SDS011;63946;51.986;5.930;2023-08-30T15:21:25;5.85;;;1.70;;
75356;SDS011;63946;51.986;5.930;2023-08-30T15:23:56;4.05;;;1.42;;
75356;SDS011;63946;51.986;5.930;2023-08-30T15:26:25;3.08;;;1.23;;
75356;SDS011;63946;51.986;5.930;2023-08-30T15:28:56;4.40;;;1.50;;
75356;SDS011;63946;51.986;5.930;2023-08-30T15:31:25;3.50;;;1.13;;
75356;SDS011;63946;51.986;5.930;2023-08-30T15:33:56;5.03;;;1.25;;
75356;SDS011;63946;51.986;5.930;2023-08-30T15:36:25;3.35;;;1.10;;
75356;SDS011;63946;51.986;5.930;2023-08-30T15:39:02;2.38;;;1.45;;
75356;SDS011;63946;51.986;5.930;2023-08-30T15:41:31;2.53;;;1.13;;
75356;SDS011;63946;51.986;5.930;2023-08-30T15:44:01;3.67;;;1.02;;
75356;SDS011;63946;51.986;5.930;2023-08-30T15:46:30;3.70;;;1.30;;
75356;SDS011;63946;51.986;5.930;2023-08-30T15:48:59;1.77;;;1.00;;
75356;SDS011;63946;51.986;5.930;2023-08-30T15:51:28;4.32;;;1.20;;
75356;SDS011;63946;51.986;5.930;2023-08-30T15:53:57;2.75;;;1.27;;
75356;SDS011;63946;51.986;5.930;2023-08-30T15:56:30;2.63;;;0.93;;
75356;SDS011;63946;51.986;5.930;2023-08-30T15:59:08;4.75;;;1.30;;
75356;SDS011;63946;51.986;5.930;2023-08-30T16:01:37;2.30;;;0.90;;
75356;SDS011;63946;51.986;5.930;2023-08-30T16:04:07;3.85;;;1.33;;
75356;SDS011;63946;51.986;5.930;2023-08-30T16:06:37;3.90;;;1.63;;
75356;SDS011;63946;51.986;5.930;2023-08-30T16:09:08;3.25;;;1.30;;
75356;SDS011;63946;51.986;5.930;2023-08-30T16:11:45;5.85;;;1.98;;
75356;SDS011;63946;51.986;5.930;2023-08-30T16:14:13;3.40;;;1.80;;
75356;SDS011;63946;51.986;5.930;2023-08-30T16:16:43;3.92;;;1.67;;
75356;SDS011;63946;51.986;5.930;2023-08-30T16:19:12;3.38;;;1.33;;
75356;SDS011;63946;51.986;5.930;2023-08-30T16:21:44;4.47;;;1.33;;
75356;SDS011;63946;51.986;5.930;2023-08-30T16:24:18;3.63;;;1.30;;
75356;SDS011;63946;51.986;5.930;2023-08-30T16:26:48;5.20;;;1.63;;
75356;SDS011;63946;51.986;5.930;2023-08-30T16:29:24;4.10;;;1.45;;
75356;SDS011;63946;51.986;5.930;2023-08-30T16:31:54;3.20;;;1.30;;
75356;SDS011;63946;51.986;5.930;2023-08-30T16:34:23;5.28;;;1.75;;
75356;SDS011;63946;51.986;5.930;2023-08-30T16:36:56;3.17;;;1.30;;
75356;SDS011;63946;51.986;5.930;2023-08-30T16:39:31;4.22;;;1.40;;
75356;SDS011;63946;51.986;5.930;2023-08-30T16:42:00;2.33;;;1.52;;
75356;SDS011;63946;51.986;5.930;2023-08-30T16:44:29;3.17;;;1.48;;
75356;SDS011;63946;51.986;5.930;2023-08-30T16:47:01;3.33;;;1.40;;
75356;SDS011;63946;51.986;5.930;2023-08-30T16:49:35;3.78;;;1.38;;
75356;SDS011;63946;51.986;5.930;2023-08-30T16:52:10;4.82;;;1.50;;
75356;SDS011;63946;51.986;5.930;2023-08-30T16:54:44;3.67;;;1.40;;
75356;SDS011;63946;51.986;5.930;2023-08-30T16:57:15;4.32;;;1.60;;
75356;SDS011;63946;51.986;5.930;2023-08-30T16:59:57;4.47;;;1.58;;
75356;SDS011;63946;51.986;5.930;2023-08-30T17:02:29;3.30;;;1.63;;
75356;SDS011;63946;51.986;5.930;2023-08-30T17:05:07;4.20;;;1.42;;
75356;SDS011;63946;51.986;5.930;2023-08-30T17:10:21;4.10;;;1.40;;
75356;SDS011;63946;51.986;5.930;2023-08-30T17:12:55;3.75;;;1.40;;
75356;SDS011;63946;51.986;5.930;2023-08-30T17:15:28;4.20;;;1.33;;
75356;SDS011;63946;51.986;5.930;2023-08-30T17:17:59;3.72;;;1.58;;
75356;SDS011;63946;51.986;5.930;2023-08-30T17:20:40;2.15;;;1.30;;
75356;SDS011;63946;51.986;5.930;2023-08-30T17:23:27;3.90;;;1.30;;
75356;SDS011;63946;51.986;5.930;2023-08-30T17:25:59;5.18;;;1.15;;
75356;SDS011;63946;51.986;5.930;2023-08-30T17:28:33;2.20;;;1.10;;
75356;SDS011;63946;51.986;5.930;2023-08-30T17:31:05;2.95;;;1.10;;
75356;SDS011;63946;51.986;5.930;2023-08-30T17:33:34;3.47;;;1.27;;
75356;SDS011;63946;51.986;5.930;2023-08-30T17:36:07;4.05;;;1.35;;
75356;SDS011;63946;51.986;5.930;2023-08-30T17:38:39;3.72;;;1.33;;
75356;SDS011;63946;51.986;5.930;2023-08-30T17:41:09;3.88;;;1.67;;
75356;SDS011;63946;51.986;5.930;2023-08-30T17:43:42;3.95;;;1.35;;
75356;SDS011;63946;51.986;5.930;2023-08-30T17:46:16;2.42;;;1.30;;
75356;SDS011;63946;51.986;5.930;2023-08-30T17:48:50;5.15;;;2.15;;
75356;SDS011;63946;51.986;5.930;2023-08-30T17:51:31;3.95;;;1.48;;
75356;SDS011;63946;51.986;5.930;2023-08-30T17:54:00;5.00;;;1.65;;
75356;SDS011;63946;51.986;5.930;2023-08-30T17:56:31;4.97;;;1.40;;
75356;SDS011;63946;51.986;5.930;2023-08-30T17:59:06;2.08;;;1.48;;
75356;SDS011;63946;51.986;5.930;2023-08-30T18:01:51;2.95;;;1.63;;
75356;SDS011;63946;51.986;5.930;2023-08-30T18:04:26;3.03;;;1.35;;
75356;SDS011;63946;51.986;5.930;2023-08-30T18:07:08;3.95;;;1.75;;
75356;SDS011;63946;51.986;5.930;2023-08-30T18:09:40;3.95;;;1.60;;
75356;SDS011;63946;51.986;5.930;2023-08-30T18:12:09;3.63;;;2.05;;
75356;SDS011;63946;51.986;5.930;2023-08-30T18:14:41;4.22;;;1.48;;
75356;SDS011;63946;51.986;5.930;2023-08-30T18:17:12;4.03;;;1.65;;
75356;SDS011;63946;51.986;5.930;2023-08-30T18:19:48;4.10;;;1.65;;
75356;SDS011;63946;51.986;5.930;2023-08-30T18:22:25;2.33;;;1.13;;
75356;SDS011;63946;51.986;5.930;2023-08-30T18:25:17;3.47;;;1.70;;
75356;SDS011;63946;51.986;5.930;2023-08-30T18:27:52;5.40;;;1.80;;
75356;SDS011;63946;51.986;5.930;2023-08-30T18:30:24;7.13;;;1.65;;
75356;SDS011;63946;51.986;5.930;2023-08-30T18:32:59;2.95;;;1.58;;
75356;SDS011;63946;51.986;5.930;2023-08-30T18:35:28;4.50;;;2.15;;
75356;SDS011;63946;51.986;5.930;2023-08-30T18:37:57;3.25;;;1.70;;
75356;SDS011;63946;51.986;5.930;2023-08-30T18:40:31;5.40;;;1.60;;
75356;SDS011;63946;51.986;5.930;2023-08-30T18:43:10;3.70;;;1.50;;
75356;SDS011;63946;51.986;5.930;2023-08-30T18:45:43;5.47;;;1.90;;
75356;SDS011;63946;51.986;5.930;2023-08-30T18:48:13;3.90;;;1.55;;
75356;SDS011;63946;51.986;5.930;2023-08-30T18:50:47;5.65;;;1.52;;
75356;SDS011;63946;51.986;5.930;2023-08-30T18:53:19;7.13;;;1.80;;
75356;SDS011;63946;51.986;5.930;2023-08-30T18:55:55;3.55;;;1.30;;
75356;SDS011;63946;51.986;5.930;2023-08-30T18:58:24;5.95;;;1.42;;
75356;SDS011;63946;51.986;5.930;2023-08-30T19:01:02;2.58;;;1.00;;
75356;SDS011;63946;51.986;5.930;2023-08-30T19:03:32;3.92;;;1.27;;
75356;SDS011;63946;51.986;5.930;2023-08-30T19:06:06;5.00;;;1.23;;
75356;SDS011;63946;51.986;5.930;2023-08-30T19:08:39;5.15;;;1.40;;
75356;SDS011;63946;51.986;5.930;2023-08-30T19:11:14;4.63;;;1.42;;
75356;SDS011;63946;51.986;5.930;2023-08-30T19:13:43;4.20;;;1.20;;
75356;SDS011;63946;51.986;5.930;2023-08-30T19:16:18;3.58;;;1.20;;
75356;SDS011;63946;51.986;5.930;2023-08-30T19:18:49;3.53;;;1.63;;
75356;SDS011;63946;51.986;5.930;2023-08-30T19:21:18;5.20;;;1.77;;
75356;SDS011;63946;51.986;5.930;2023-08-30T19:23:47;3.72;;;1.33;;
75356;SDS011;63946;51.986;5.930;2023-08-30T19:26:17;3.42;;;1.40;;
75356;SDS011;63946;51.986;5.930;2023-08-30T19:28:54;4.53;;;1.40;;
75356;SDS011;63946;51.986;5.930;2023-08-30T19:31:24;3.70;;;1.50;;
75356;SDS011;63946;51.986;5.930;2023-08-30T19:33:53;3.10;;;1.25;;
75356;SDS011;63946;51.986;5.930;2023-08-30T19:36:25;3.78;;;1.63;;
75356;SDS011;63946;51.986;5.930;2023-08-30T19:38:53;4.65;;;1.88;;
75356;SDS011;63946;51.986;5.930;2023-08-30T19:41:25;3.45;;;1.40;;
75356;SDS011;63946;51.986;5.930;2023-08-30T19:43:54;5.38;;;1.95;;
75356;SDS011;63946;51.986;5.930;2023-08-30T19:46:24;4.43;;;1.30;;
75356;SDS011;63946;51.986;5.930;2023-08-30T19:48:53;4.57;;;1.80;;
75356;SDS011;63946;51.986;5.930;2023-08-30T19:51:23;5.53;;;1.35;;
75356;SDS011;63946;51.986;5.930;2023-08-30T19:54:01;6.90;;;1.85;;
75356;SDS011;63946;51.986;5.930;2023-08-30T19:56:34;3.55;;;1.50;;
75356;SDS011;63946;51.986;5.930;2023-08-30T19:59:11;3.97;;;1.40;;
75356;SDS011;63946;51.986;5.930;2023-08-30T20:01:44;4.07;;;1.52;;
75356;SDS011;63946;51.986;5.930;2023-08-30T20:04:19;8.07;;;1.92;;
75356;SDS011;63946;51.986;5.930;2023-08-30T20:06:50;4.57;;;1.30;;
75356;SDS011;63946;51.986;5.930;2023-08-30T20:09:25;6.00;;;1.52;;
75356;SDS011;63946;51.986;5.930;2023-08-30T20:11:58;3.15;;;1.13;;
75356;SDS011;63946;51.986;5.930;2023-08-30T20:14:31;3.72;;;1.48;;
75356;SDS011;63946;51.986;5.930;2023-08-30T20:17:09;5.10;;;1.50;;
75356;SDS011;63946;51.986;5.930;2023-08-30T20:19:38;5.07;;;1.50;;
75356;SDS011;63946;51.986;5.930;2023-08-30T20:22:16;4.07;;;1.90;;
75356;SDS011;63946;51.986;5.930;2023-08-30T20:24:52;4.43;;;1.90;;
75356;SDS011;63946;51.986;5.930;2023-08-30T20:27:24;4.85;;;1.67;;
75356;SDS011;63946;51.986;5.930;2023-08-30T20:29:54;4.13;;;1.40;;
75356;SDS011;63946;51.986;5.930;2023-08-30T20:32:29;2.63;;;1.42;;
75356;SDS011;63946;51.986;5.930;2023-08-30T20:35:01;4.30;;;1.67;;